sensor_id;sensor_type;location;lat;lon;timestamp;temperature;humidity
16744;DHT22;71724;-33.900;151.182;2024-03-08T00:00:14;25.00;79.90
16744;DHT22;71724;-33.900;151.182;2024-03-08T00:02:42;25.00;79.80
16744;DHT22;71724;-33.900;151.182;2024-03-08T00:05:10;25.00;79.80
16744;DHT22;71724;-33.900;151.182;2024-03-08T00:07:42;25.10;79.70
16744;DHT22;71724;-33.900;151.182;2024-03-08T00:10:11;25.10;79.50
16744;DHT22;71724;-33.900;151.182;2024-03-08T00:12:43;25.10;79.40
16744;DHT22;71724;-33.900;151.182;2024-03-08T00:15:16;25.20;79.20
16744;DHT22;71724;-33.900;151.182;2024-03-08T00:17:44;25.20;79.30
16744;DHT22;71724;-33.900;151.182;2024-03-08T00:20:12;25.20;79.10
16744;DHT22;71724;-33.900;151.182;2024-03-08T00:22:40;25.20;79.10
16744;DHT22;71724;-33.900;151.182;2024-03-08T00:25:08;25.20;79.30
16744;DHT22;71724;-33.900;151.182;2024-03-08T00:27:42;25.30;79.20
16744;DHT22;71724;-33.900;151.182;2024-03-08T00:30:10;25.40;79.20
16744;DHT22;71724;-33.900;151.182;2024-03-08T00:32:39;25.50;79.30
16744;DHT22;71724;-33.900;151.182;2024-03-08T00:35:08;25.60;79.00
16744;DHT22;71724;-33.900;151.182;2024-03-08T00:37:36;25.70;78.90
16744;DHT22;71724;-33.900;151.182;2024-03-08T00:40:06;25.70;78.80
16744;DHT22;71724;-33.900;151.182;2024-03-08T00:42:35;25.80;78.70
16744;DHT22;71724;-33.900;151.182;2024-03-08T00:45:06;25.80;78.40
16744;DHT22;71724;-33.900;151.182;2024-03-08T00:47:34;25.80;78.10
16744;DHT22;71724;-33.900;151.182;2024-03-08T00:50:02;25.90;78.40
16744;DHT22;71724;-33.900;151.182;2024-03-08T00:52:34;25.90;77.40
16744;DHT22;71724;-33.900;151.182;2024-03-08T00:55:02;26.00;77.30
16744;DHT22;71724;-33.900;151.182;2024-03-08T00:57:29;26.10;77.20
16744;DHT22;71724;-33.900;151.182;2024-03-08T00:59:57;26.10;77.00
16744;DHT22;71724;-33.900;151.182;2024-03-08T01:02:24;26.20;76.90
16744;DHT22;71724;-33.900;151.182;2024-03-08T01:04:51;26.30;76.70
16744;DHT22;71724;-33.900;151.182;2024-03-08T01:07:21;26.30;76.60
16744;DHT22;71724;-33.900;151.182;2024-03-08T01:09:48;26.50;76.20
16744;DHT22;71724;-33.900;151.182;2024-03-08T01:12:15;26.50;75.50
16744;DHT22;71724;-33.900;151.182;2024-03-08T01:14:43;26.50;75.20
16744;DHT22;71724;-33.900;151.182;2024-03-08T01:17:10;26.60;75.50
16744;DHT22;71724;-33.900;151.182;2024-03-08T01:19:40;26.60;75.60
16744;DHT22;71724;-33.900;151.182;2024-03-08T01:22:07;26.70;75.40
16744;DHT22;71724;-33.900;151.182;2024-03-08T01:24:36;26.80;75.30
16744;DHT22;71724;-33.900;151.182;2024-03-08T01:27:04;26.80;74.90
16744;DHT22;71724;-33.900;151.182;2024-03-08T01:29:31;26.90;74.20
16744;DHT22;71724;-33.900;151.182;2024-03-08T01:31:59;27.00;74.40
16744;DHT22;71724;-33.900;151.182;2024-03-08T01:34:28;27.00;74.80
16744;DHT22;71724;-33.900;151.182;2024-03-08T01:36:55;27.10;74.00
16744;DHT22;71724;-33.900;151.182;2024-03-08T01:39:24;27.20;74.30
16744;DHT22;71724;-33.900;151.182;2024-03-08T01:41:51;27.20;73.20
16744;DHT22;71724;-33.900;151.182;2024-03-08T01:44:20;27.10;72.60
16744;DHT22;71724;-33.900;151.182;2024-03-08T01:46:49;27.10;73.20
16744;DHT22;71724;-33.900;151.182;2024-03-08T01:49:20;27.00;72.20
16744;DHT22;71724;-33.900;151.182;2024-03-08T01:51:49;27.00;72.10
16744;DHT22;71724;-33.900;151.182;2024-03-08T01:54:19;26.90;72.40
16744;DHT22;71724;-33.900;151.182;2024-03-08T01:56:47;26.90;72.60
16744;DHT22;71724;-33.900;151.182;2024-03-08T01:59:15;27.00;72.60
16744;DHT22;71724;-33.900;151.182;2024-03-08T02:01:43;27.00;72.30
16744;DHT22;71724;-33.900;151.182;2024-03-08T02:04:11;27.10;72.10
16744;DHT22;71724;-33.900;151.182;2024-03-08T02:06:38;27.10;71.70
16744;DHT22;71724;-33.900;151.182;2024-03-08T02:09:06;27.20;71.20
16744;DHT22;71724;-33.900;151.182;2024-03-08T02:11:35;27.20;70.40
16744;DHT22;71724;-33.900;151.182;2024-03-08T02:14:02;27.20;70.60
16744;DHT22;71724;-33.900;151.182;2024-03-08T02:16:32;27.30;70.80
16744;DHT22;71724;-33.900;151.182;2024-03-08T02:19:00;27.30;69.90
16744;DHT22;71724;-33.900;151.182;2024-03-08T02:21:27;27.30;69.20
16744;DHT22;71724;-33.900;151.182;2024-03-08T02:23:56;27.30;68.90
16744;DHT22;71724;-33.900;151.182;2024-03-08T02:26:23;27.30;69.40
16744;DHT22;71724;-33.900;151.182;2024-03-08T02:28:51;27.40;68.80
16744;DHT22;71724;-33.900;151.182;2024-03-08T02:31:18;27.40;69.40
16744;DHT22;71724;-33.900;151.182;2024-03-08T02:33:45;27.40;69.20
16744;DHT22;71724;-33.900;151.182;2024-03-08T02:36:14;27.50;68.60
16744;DHT22;71724;-33.900;151.182;2024-03-08T02:38:42;27.50;69.00
16744;DHT22;71724;-33.900;151.182;2024-03-08T02:41:10;27.60;68.90
16744;DHT22;71724;-33.900;151.182;2024-03-08T02:43:37;27.70;66.50
16744;DHT22;71724;-33.900;151.182;2024-03-08T02:46:04;27.80;66.10
16744;DHT22;71724;-33.900;151.182;2024-03-08T02:48:32;27.80;66.30
16744;DHT22;71724;-33.900;151.182;2024-03-08T02:50:59;27.80;66.20
16744;DHT22;71724;-33.900;151.182;2024-03-08T02:53:28;27.80;65.90
16744;DHT22;71724;-33.900;151.182;2024-03-08T02:55:55;27.80;65.00
16744;DHT22;71724;-33.900;151.182;2024-03-08T02:58:23;27.80;65.10
16744;DHT22;71724;-33.900;151.182;2024-03-08T03:00:50;27.80;64.60
16744;DHT22;71724;-33.900;151.182;2024-03-08T03:03:18;27.90;63.80
16744;DHT22;71724;-33.900;151.182;2024-03-08T03:05:45;27.90;64.60
16744;DHT22;71724;-33.900;151.182;2024-03-08T03:08:13;27.90;63.90
16744;DHT22;71724;-33.900;151.182;2024-03-08T03:10:43;27.90;63.80
16744;DHT22;71724;-33.900;151.182;2024-03-08T03:13:10;27.90;64.00
16744;DHT22;71724;-33.900;151.182;2024-03-08T03:15:38;28.00;64.40
16744;DHT22;71724;-33.900;151.182;2024-03-08T03:18:08;28.00;64.10
16744;DHT22;71724;-33.900;151.182;2024-03-08T03:20:36;28.10;64.50
16744;DHT22;71724;-33.900;151.182;2024-03-08T03:23:10;28.10;64.70
16744;DHT22;71724;-33.900;151.182;2024-03-08T03:25:40;28.10;64.80
16744;DHT22;71724;-33.900;151.182;2024-03-08T03:28:08;28.10;65.00
16744;DHT22;71724;-33.900;151.182;2024-03-08T03:30:37;28.20;65.20
16744;DHT22;71724;-33.900;151.182;2024-03-08T03:33:05;28.20;65.20
16744;DHT22;71724;-33.900;151.182;2024-03-08T03:35:36;28.20;64.80
16744;DHT22;71724;-33.900;151.182;2024-03-08T03:38:04;28.20;64.70
16744;DHT22;71724;-33.900;151.182;2024-03-08T03:40:38;28.30;65.10
16744;DHT22;71724;-33.900;151.182;2024-03-08T03:43:05;28.30;64.90
16744;DHT22;71724;-33.900;151.182;2024-03-08T03:45:33;28.20;65.20
16744;DHT22;71724;-33.900;151.182;2024-03-08T03:48:07;28.30;64.90
16744;DHT22;71724;-33.900;151.182;2024-03-08T03:50:38;28.30;65.00
16744;DHT22;71724;-33.900;151.182;2024-03-08T03:53:06;28.20;64.50
16744;DHT22;71724;-33.900;151.182;2024-03-08T03:55:36;28.20;64.60
16744;DHT22;71724;-33.900;151.182;2024-03-08T03:58:05;28.30;64.40
16744;DHT22;71724;-33.900;151.182;2024-03-08T04:00:32;28.30;63.60
16744;DHT22;71724;-33.900;151.182;2024-03-08T04:02:59;28.30;64.00
16744;DHT22;71724;-33.900;151.182;2024-03-08T04:05:27;28.30;64.10
16744;DHT22;71724;-33.900;151.182;2024-03-08T04:07:54;28.30;64.40
16744;DHT22;71724;-33.900;151.182;2024-03-08T04:10:22;28.30;64.10
16744;DHT22;71724;-33.900;151.182;2024-03-08T04:12:49;28.40;64.60
16744;DHT22;71724;-33.900;151.182;2024-03-08T04:15:17;28.40;64.60
16744;DHT22;71724;-33.900;151.182;2024-03-08T04:17:48;28.50;64.50
16744;DHT22;71724;-33.900;151.182;2024-03-08T04:23:25;28.50;63.20
16744;DHT22;71724;-33.900;151.182;2024-03-08T04:26:00;28.50;62.70
16744;DHT22;71724;-33.900;151.182;2024-03-08T04:28:27;28.50;63.00
16744;DHT22;71724;-33.900;151.182;2024-03-08T04:30:55;28.50;63.20
16744;DHT22;71724;-33.900;151.182;2024-03-08T04:33:22;28.50;64.00
16744;DHT22;71724;-33.900;151.182;2024-03-08T04:35:50;28.40;63.90
16744;DHT22;71724;-33.900;151.182;2024-03-08T04:38:17;28.40;63.60
16744;DHT22;71724;-33.900;151.182;2024-03-08T04:40:46;28.40;64.10
16744;DHT22;71724;-33.900;151.182;2024-03-08T04:43:13;28.40;64.20
16744;DHT22;71724;-33.900;151.182;2024-03-08T04:45:41;28.40;64.30
16744;DHT22;71724;-33.900;151.182;2024-03-08T04:48:10;28.50;64.10
16744;DHT22;71724;-33.900;151.182;2024-03-08T04:50:38;28.40;63.90
16744;DHT22;71724;-33.900;151.182;2024-03-08T04:53:06;28.40;63.70
16744;DHT22;71724;-33.900;151.182;2024-03-08T04:55:35;28.40;64.00
16744;DHT22;71724;-33.900;151.182;2024-03-08T04:58:04;28.30;64.10
16744;DHT22;71724;-33.900;151.182;2024-03-08T05:00:34;28.40;63.90
16744;DHT22;71724;-33.900;151.182;2024-03-08T05:03:01;28.30;63.30
16744;DHT22;71724;-33.900;151.182;2024-03-08T05:05:29;28.30;63.00
16744;DHT22;71724;-33.900;151.182;2024-03-08T05:07:57;28.30;62.90
16744;DHT22;71724;-33.900;151.182;2024-03-08T05:10:24;28.30;62.40
16744;DHT22;71724;-33.900;151.182;2024-03-08T05:12:51;28.20;62.30
16744;DHT22;71724;-33.900;151.182;2024-03-08T05:15:19;28.10;62.50
16744;DHT22;71724;-33.900;151.182;2024-03-08T05:17:47;28.10;62.50
16744;DHT22;71724;-33.900;151.182;2024-03-08T05:20:14;28.10;62.30
16744;DHT22;71724;-33.900;151.182;2024-03-08T05:22:43;28.00;62.30
16744;DHT22;71724;-33.900;151.182;2024-03-08T05:25:11;28.10;62.90
16744;DHT22;71724;-33.900;151.182;2024-03-08T05:27:38;28.10;63.10
16744;DHT22;71724;-33.900;151.182;2024-03-08T05:30:06;28.10;63.40
16744;DHT22;71724;-33.900;151.182;2024-03-08T05:32:34;28.00;63.70
16744;DHT22;71724;-33.900;151.182;2024-03-08T05:35:02;28.00;63.80
16744;DHT22;71724;-33.900;151.182;2024-03-08T05:37:33;28.00;64.40
16744;DHT22;71724;-33.900;151.182;2024-03-08T05:40:01;28.10;64.50
16744;DHT22;71724;-33.900;151.182;2024-03-08T05:42:28;28.10;64.70
16744;DHT22;71724;-33.900;151.182;2024-03-08T05:44:55;28.00;64.70
16744;DHT22;71724;-33.900;151.182;2024-03-08T05:47:23;28.00;64.70
16744;DHT22;71724;-33.900;151.182;2024-03-08T05:49:51;28.00;64.90
16744;DHT22;71724;-33.900;151.182;2024-03-08T05:52:20;28.00;64.90
16744;DHT22;71724;-33.900;151.182;2024-03-08T05:54:47;28.00;65.00
16744;DHT22;71724;-33.900;151.182;2024-03-08T05:57:14;28.00;64.80
16744;DHT22;71724;-33.900;151.182;2024-03-08T05:59:42;28.00;64.90
16744;DHT22;71724;-33.900;151.182;2024-03-08T06:02:10;28.10;64.50
16744;DHT22;71724;-33.900;151.182;2024-03-08T06:04:38;28.00;64.30
16744;DHT22;71724;-33.900;151.182;2024-03-08T06:07:05;28.00;64.40
16744;DHT22;71724;-33.900;151.182;2024-03-08T06:09:32;28.00;64.40
16744;DHT22;71724;-33.900;151.182;2024-03-08T06:12:00;28.00;64.20
16744;DHT22;71724;-33.900;151.182;2024-03-08T06:14:28;28.00;64.20
16744;DHT22;71724;-33.900;151.182;2024-03-08T06:16:55;27.90;64.10
16744;DHT22;71724;-33.900;151.182;2024-03-08T06:19:23;27.90;63.90
16744;DHT22;71724;-33.900;151.182;2024-03-08T06:21:50;27.80;63.90
16744;DHT22;71724;-33.900;151.182;2024-03-08T06:24:18;27.80;64.10
16744;DHT22;71724;-33.900;151.182;2024-03-08T06:26:46;27.80;64.10
16744;DHT22;71724;-33.900;151.182;2024-03-08T06:29:13;27.70;63.90
16744;DHT22;71724;-33.900;151.182;2024-03-08T06:31:42;27.70;64.00
16744;DHT22;71724;-33.900;151.182;2024-03-08T06:34:09;27.80;63.90
16744;DHT22;71724;-33.900;151.182;2024-03-08T06:36:38;27.70;64.00
16744;DHT22;71724;-33.900;151.182;2024-03-08T06:39:05;27.70;64.50
16744;DHT22;71724;-33.900;151.182;2024-03-08T06:41:37;27.70;64.60
16744;DHT22;71724;-33.900;151.182;2024-03-08T06:44:04;27.70;64.60
16744;DHT22;71724;-33.900;151.182;2024-03-08T06:46:32;27.70;64.60
16744;DHT22;71724;-33.900;151.182;2024-03-08T06:49:00;27.70;64.40
16744;DHT22;71724;-33.900;151.182;2024-03-08T06:51:27;27.70;64.30
16744;DHT22;71724;-33.900;151.182;2024-03-08T06:53:55;27.70;64.50
16744;DHT22;71724;-33.900;151.182;2024-03-08T06:56:22;27.70;64.30
16744;DHT22;71724;-33.900;151.182;2024-03-08T06:58:50;27.70;64.20
16744;DHT22;71724;-33.900;151.182;2024-03-08T07:01:17;27.70;64.10
16744;DHT22;71724;-33.900;151.182;2024-03-08T07:03:44;27.70;64.30
16744;DHT22;71724;-33.900;151.182;2024-03-08T07:06:12;27.60;64.20
16744;DHT22;71724;-33.900;151.182;2024-03-08T07:08:40;27.60;64.20
16744;DHT22;71724;-33.900;151.182;2024-03-08T07:11:09;27.60;64.30
16744;DHT22;71724;-33.900;151.182;2024-03-08T07:13:37;27.50;64.30
16744;DHT22;71724;-33.900;151.182;2024-03-08T07:16:05;27.50;64.20
16744;DHT22;71724;-33.900;151.182;2024-03-08T07:18:35;27.40;64.30
16744;DHT22;71724;-33.900;151.182;2024-03-08T07:21:06;27.30;64.30
16744;DHT22;71724;-33.900;151.182;2024-03-08T07:23:33;27.30;64.70
16744;DHT22;71724;-33.900;151.182;2024-03-08T07:26:20;27.30;64.90
16744;DHT22;71724;-33.900;151.182;2024-03-08T07:28:48;27.20;65.00
16744;DHT22;71724;-33.900;151.182;2024-03-08T07:31:15;27.10;65.50
16744;DHT22;71724;-33.900;151.182;2024-03-08T07:34:08;27.00;65.60
16744;DHT22;71724;-33.900;151.182;2024-03-08T07:36:36;27.00;66.00
16744;DHT22;71724;-33.900;151.182;2024-03-08T07:39:03;27.00;66.00
16744;DHT22;71724;-33.900;151.182;2024-03-08T07:41:38;26.90;66.20
16744;DHT22;71724;-33.900;151.182;2024-03-08T07:44:08;26.80;66.60
16744;DHT22;71724;-33.900;151.182;2024-03-08T07:46:36;26.80;66.60
16744;DHT22;71724;-33.900;151.182;2024-03-08T07:49:03;26.80;66.80
16744;DHT22;71724;-33.900;151.182;2024-03-08T07:51:31;26.70;67.00
16744;DHT22;71724;-33.900;151.182;2024-03-08T07:54:01;26.70;67.20
16744;DHT22;71724;-33.900;151.182;2024-03-08T07:56:31;26.70;67.40
16744;DHT22;71724;-33.900;151.182;2024-03-08T07:58:58;26.60;67.70
16744;DHT22;71724;-33.900;151.182;2024-03-08T08:01:26;26.60;68.10
16744;DHT22;71724;-33.900;151.182;2024-03-08T08:03:53;26.60;68.30
16744;DHT22;71724;-33.900;151.182;2024-03-08T08:06:20;26.50;68.20
16744;DHT22;71724;-33.900;151.182;2024-03-08T08:08:48;26.50;68.40
16744;DHT22;71724;-33.900;151.182;2024-03-08T08:11:16;26.50;68.40
16744;DHT22;71724;-33.900;151.182;2024-03-08T08:13:43;26.40;68.30
16744;DHT22;71724;-33.900;151.182;2024-03-08T08:16:10;26.30;68.60
16744;DHT22;71724;-33.900;151.182;2024-03-08T08:18:39;26.30;68.70
16744;DHT22;71724;-33.900;151.182;2024-03-08T08:21:07;26.30;68.80
16744;DHT22;71724;-33.900;151.182;2024-03-08T08:23:34;26.30;69.00
16744;DHT22;71724;-33.900;151.182;2024-03-08T08:26:02;26.30;68.90
16744;DHT22;71724;-33.900;151.182;2024-03-08T08:28:30;26.20;68.90
16744;DHT22;71724;-33.900;151.182;2024-03-08T08:30:58;26.20;69.00
16744;DHT22;71724;-33.900;151.182;2024-03-08T08:33:26;26.10;69.10
16744;DHT22;71724;-33.900;151.182;2024-03-08T08:35:53;26.10;69.30
16744;DHT22;71724;-33.900;151.182;2024-03-08T08:38:22;26.10;69.50
16744;DHT22;71724;-33.900;151.182;2024-03-08T08:40:49;26.00;69.60
16744;DHT22;71724;-33.900;151.182;2024-03-08T08:43:17;26.00;69.70
16744;DHT22;71724;-33.900;151.182;2024-03-08T08:45:47;26.00;69.80
16744;DHT22;71724;-33.900;151.182;2024-03-08T08:48:17;26.00;70.00
16744;DHT22;71724;-33.900;151.182;2024-03-08T08:50:45;26.00;69.90
16744;DHT22;71724;-33.900;151.182;2024-03-08T08:53:13;25.90;69.90
16744;DHT22;71724;-33.900;151.182;2024-03-08T08:55:41;25.90;69.80
16744;DHT22;71724;-33.900;151.182;2024-03-08T08:58:08;25.90;70.00
16744;DHT22;71724;-33.900;151.182;2024-03-08T09:00:37;25.90;70.10
16744;DHT22;71724;-33.900;151.182;2024-03-08T09:03:05;25.80;70.10
16744;DHT22;71724;-33.900;151.182;2024-03-08T09:05:37;25.90;70.20
16744;DHT22;71724;-33.900;151.182;2024-03-08T09:08:05;25.80;69.80
16744;DHT22;71724;-33.900;151.182;2024-03-08T09:10:32;25.80;70.00
16744;DHT22;71724;-33.900;151.182;2024-03-08T09:13:00;25.80;70.00
16744;DHT22;71724;-33.900;151.182;2024-03-08T09:15:30;25.80;70.10
16744;DHT22;71724;-33.900;151.182;2024-03-08T09:17:58;25.80;70.30
16744;DHT22;71724;-33.900;151.182;2024-03-08T09:20:25;25.80;70.10
16744;DHT22;71724;-33.900;151.182;2024-03-08T09:22:53;25.70;70.20
16744;DHT22;71724;-33.900;151.182;2024-03-08T09:25:21;25.80;70.30
16744;DHT22;71724;-33.900;151.182;2024-03-08T09:27:48;25.70;70.50
16744;DHT22;71724;-33.900;151.182;2024-03-08T09:30:16;25.70;70.50
16744;DHT22;71724;-33.900;151.182;2024-03-08T09:32:44;25.70;70.80
16744;DHT22;71724;-33.900;151.182;2024-03-08T09:35:13;25.70;70.80
16744;DHT22;71724;-33.900;151.182;2024-03-08T09:37:40;25.70;70.70
16744;DHT22;71724;-33.900;151.182;2024-03-08T09:40:07;25.70;70.90
16744;DHT22;71724;-33.900;151.182;2024-03-08T09:42:42;25.70;71.10
16744;DHT22;71724;-33.900;151.182;2024-03-08T09:45:11;25.60;71.10
16744;DHT22;71724;-33.900;151.182;2024-03-08T09:47:43;25.60;71.20
16744;DHT22;71724;-33.900;151.182;2024-03-08T09:50:11;25.60;71.20
16744;DHT22;71724;-33.900;151.182;2024-03-08T09:52:47;25.60;71.50
16744;DHT22;71724;-33.900;151.182;2024-03-08T09:55:16;25.60;71.60
16744;DHT22;71724;-33.900;151.182;2024-03-08T09:57:49;25.60;71.50
16744;DHT22;71724;-33.900;151.182;2024-03-08T10:00:39;25.60;71.60
16744;DHT22;71724;-33.900;151.182;2024-03-08T10:03:07;25.60;72.10
16744;DHT22;71724;-33.900;151.182;2024-03-08T10:05:35;25.60;71.90
16744;DHT22;71724;-33.900;151.182;2024-03-08T10:08:03;25.50;71.90
16744;DHT22;71724;-33.900;151.182;2024-03-08T10:10:33;25.50;72.00
16744;DHT22;71724;-33.900;151.182;2024-03-08T10:13:00;25.50;72.00
16744;DHT22;71724;-33.900;151.182;2024-03-08T10:15:28;25.50;72.10
16744;DHT22;71724;-33.900;151.182;2024-03-08T10:18:01;25.50;72.20
16744;DHT22;71724;-33.900;151.182;2024-03-08T10:20:32;25.50;72.30
16744;DHT22;71724;-33.900;151.182;2024-03-08T10:23:05;25.50;72.40
16744;DHT22;71724;-33.900;151.182;2024-03-08T10:25:34;25.50;72.50
16744;DHT22;71724;-33.900;151.182;2024-03-08T10:28:04;25.40;72.60
16744;DHT22;71724;-33.900;151.182;2024-03-08T10:30:34;25.40;72.50
16744;DHT22;71724;-33.900;151.182;2024-03-08T10:33:01;25.40;72.70
16744;DHT22;71724;-33.900;151.182;2024-03-08T10:35:31;25.30;72.80
16744;DHT22;71724;-33.900;151.182;2024-03-08T10:37:59;25.40;72.70
16744;DHT22;71724;-33.900;151.182;2024-03-08T10:40:30;25.40;72.80
16744;DHT22;71724;-33.900;151.182;2024-03-08T10:43:00;25.40;72.70
16744;DHT22;71724;-33.900;151.182;2024-03-08T10:50:37;25.40;72.40
16744;DHT22;71724;-33.900;151.182;2024-03-08T10:53:06;25.40;72.40
16744;DHT22;71724;-33.900;151.182;2024-03-08T10:55:37;25.30;72.50
16744;DHT22;71724;-33.900;151.182;2024-03-08T10:58:07;25.30;72.50
16744;DHT22;71724;-33.900;151.182;2024-03-08T11:00:35;25.40;72.60
16744;DHT22;71724;-33.900;151.182;2024-03-08T11:03:04;25.40;72.30
16744;DHT22;71724;-33.900;151.182;2024-03-08T11:05:39;25.40;72.30
16744;DHT22;71724;-33.900;151.182;2024-03-08T11:08:27;25.30;72.50
16744;DHT22;71724;-33.900;151.182;2024-03-08T11:10:54;25.30;72.70
16744;DHT22;71724;-33.900;151.182;2024-03-08T11:13:41;25.30;72.40
16744;DHT22;71724;-33.900;151.182;2024-03-08T11:16:36;25.30;72.70
16744;DHT22;71724;-33.900;151.182;2024-03-08T11:19:05;25.30;72.70
16744;DHT22;71724;-33.900;151.182;2024-03-08T11:21:37;25.30;72.50
16744;DHT22;71724;-33.900;151.182;2024-03-08T11:24:13;25.30;72.60
16744;DHT22;71724;-33.900;151.182;2024-03-08T11:26:41;25.20;72.60
16744;DHT22;71724;-33.900;151.182;2024-03-08T11:32:17;25.20;72.70
16744;DHT22;71724;-33.900;151.182;2024-03-08T11:34:50;25.20;72.80
16744;DHT22;71724;-33.900;151.182;2024-03-08T11:37:19;25.10;72.80
16744;DHT22;71724;-33.900;151.182;2024-03-08T11:39:48;25.10;72.70
16744;DHT22;71724;-33.900;151.182;2024-03-08T11:42:16;25.10;72.40
16744;DHT22;71724;-33.900;151.182;2024-03-08T11:44:45;25.10;71.80
16744;DHT22;71724;-33.900;151.182;2024-03-08T11:47:14;25.10;71.90
16744;DHT22;71724;-33.900;151.182;2024-03-08T11:49:42;25.10;71.90
16744;DHT22;71724;-33.900;151.182;2024-03-08T11:52:16;25.10;71.90
16744;DHT22;71724;-33.900;151.182;2024-03-08T11:54:54;25.10;71.90
16744;DHT22;71724;-33.900;151.182;2024-03-08T11:57:24;25.10;72.20
16744;DHT22;71724;-33.900;151.182;2024-03-08T11:59:52;25.10;71.90
16744;DHT22;71724;-33.900;151.182;2024-03-08T12:02:20;25.10;72.10
16744;DHT22;71724;-33.900;151.182;2024-03-08T12:04:47;25.10;72.20
16744;DHT22;71724;-33.900;151.182;2024-03-08T12:07:22;25.20;72.20
16744;DHT22;71724;-33.900;151.182;2024-03-08T12:10:15;25.20;72.00
16744;DHT22;71724;-33.900;151.182;2024-03-08T12:12:50;25.20;72.20
16744;DHT22;71724;-33.900;151.182;2024-03-08T12:15:19;25.10;72.50
16744;DHT22;71724;-33.900;151.182;2024-03-08T12:17:53;25.10;72.80
16744;DHT22;71724;-33.900;151.182;2024-03-08T12:20:27;25.10;72.90
16744;DHT22;71724;-33.900;151.182;2024-03-08T12:22:59;25.10;73.10
16744;DHT22;71724;-33.900;151.182;2024-03-08T12:25:33;25.00;73.10
16744;DHT22;71724;-33.900;151.182;2024-03-08T12:28:12;25.00;73.20
16744;DHT22;71724;-33.900;151.182;2024-03-08T12:30:59;25.00;73.40
16744;DHT22;71724;-33.900;151.182;2024-03-08T12:33:27;25.00;73.50
16744;DHT22;71724;-33.900;151.182;2024-03-08T12:35:55;24.90;73.60
16744;DHT22;71724;-33.900;151.182;2024-03-08T12:38:28;25.00;73.30
16744;DHT22;71724;-33.900;151.182;2024-03-08T12:41:01;25.00;73.10
16744;DHT22;71724;-33.900;151.182;2024-03-08T12:43:28;25.00;73.00
16744;DHT22;71724;-33.900;151.182;2024-03-08T12:46:00;25.00;72.90
16744;DHT22;71724;-33.900;151.182;2024-03-08T12:48:28;24.90;73.20
16744;DHT22;71724;-33.900;151.182;2024-03-08T12:50:55;24.90;73.40
16744;DHT22;71724;-33.900;151.182;2024-03-08T12:53:22;24.80;73.40
16744;DHT22;71724;-33.900;151.182;2024-03-08T12:55:51;24.80;73.50
16744;DHT22;71724;-33.900;151.182;2024-03-08T12:58:19;24.90;73.60
16744;DHT22;71724;-33.900;151.182;2024-03-08T13:00:46;24.80;73.40
16744;DHT22;71724;-33.900;151.182;2024-03-08T13:03:15;24.80;73.40
16744;DHT22;71724;-33.900;151.182;2024-03-08T13:05:42;24.80;73.00
16744;DHT22;71724;-33.900;151.182;2024-03-08T13:08:09;24.80;73.20
16744;DHT22;71724;-33.900;151.182;2024-03-08T13:10:40;24.80;73.60
16744;DHT22;71724;-33.900;151.182;2024-03-08T13:13:12;24.80;73.30
16744;DHT22;71724;-33.900;151.182;2024-03-08T13:15:44;24.80;73.20
16744;DHT22;71724;-33.900;151.182;2024-03-08T13:18:12;24.80;73.00
16744;DHT22;71724;-33.900;151.182;2024-03-08T13:20:39;24.70;72.90
16744;DHT22;71724;-33.900;151.182;2024-03-08T13:23:08;24.70;73.50
16744;DHT22;71724;-33.900;151.182;2024-03-08T13:25:35;24.70;73.30
16744;DHT22;71724;-33.900;151.182;2024-03-08T13:28:05;24.70;73.30
16744;DHT22;71724;-33.900;151.182;2024-03-08T13:30:33;24.70;73.10
16744;DHT22;71724;-33.900;151.182;2024-03-08T13:33:02;24.70;73.10
16744;DHT22;71724;-33.900;151.182;2024-03-08T13:35:31;24.60;73.10
16744;DHT22;71724;-33.900;151.182;2024-03-08T13:37:59;24.70;73.10
16744;DHT22;71724;-33.900;151.182;2024-03-08T13:40:30;24.60;73.10
16744;DHT22;71724;-33.900;151.182;2024-03-08T13:42:57;24.60;73.10
16744;DHT22;71724;-33.900;151.182;2024-03-08T13:45:27;24.60;73.20
16744;DHT22;71724;-33.900;151.182;2024-03-08T13:47:54;24.50;73.40
16744;DHT22;71724;-33.900;151.182;2024-03-08T13:50:22;24.50;73.50
16744;DHT22;71724;-33.900;151.182;2024-03-08T13:52:50;24.50;73.40
16744;DHT22;71724;-33.900;151.182;2024-03-08T13:55:21;24.50;73.40
16744;DHT22;71724;-33.900;151.182;2024-03-08T13:57:49;24.50;73.50
16744;DHT22;71724;-33.900;151.182;2024-03-08T14:00:18;24.50;73.50
16744;DHT22;71724;-33.900;151.182;2024-03-08T14:02:49;24.40;73.50
16744;DHT22;71724;-33.900;151.182;2024-03-08T14:05:17;24.40;73.50
16744;DHT22;71724;-33.900;151.182;2024-03-08T14:07:46;24.30;73.60
16744;DHT22;71724;-33.900;151.182;2024-03-08T14:10:16;24.30;73.90
16744;DHT22;71724;-33.900;151.182;2024-03-08T14:12:46;24.20;74.00
16744;DHT22;71724;-33.900;151.182;2024-03-08T14:15:15;24.20;74.30
16744;DHT22;71724;-33.900;151.182;2024-03-08T14:17:43;24.20;74.70
16744;DHT22;71724;-33.900;151.182;2024-03-08T14:20:13;24.10;75.10
16744;DHT22;71724;-33.900;151.182;2024-03-08T14:22:40;24.10;75.10
16744;DHT22;71724;-33.900;151.182;2024-03-08T14:25:08;24.10;75.20
16744;DHT22;71724;-33.900;151.182;2024-03-08T14:27:53;24.10;75.90
16744;DHT22;71724;-33.900;151.182;2024-03-08T14:30:23;24.10;75.30
16744;DHT22;71724;-33.900;151.182;2024-03-08T14:33:07;24.00;75.10
16744;DHT22;71724;-33.900;151.182;2024-03-08T14:35:40;24.00;75.90
16744;DHT22;71724;-33.900;151.182;2024-03-08T14:38:09;24.00;76.40
16744;DHT22;71724;-33.900;151.182;2024-03-08T14:40:38;23.90;76.40
16744;DHT22;71724;-33.900;151.182;2024-03-08T14:43:06;23.90;76.20
16744;DHT22;71724;-33.900;151.182;2024-03-08T14:45:34;23.80;76.00
16744;DHT22;71724;-33.900;151.182;2024-03-08T14:48:02;23.80;76.00
16744;DHT22;71724;-33.900;151.182;2024-03-08T14:50:32;23.80;75.90
16744;DHT22;71724;-33.900;151.182;2024-03-08T14:52:59;23.80;76.00
16744;DHT22;71724;-33.900;151.182;2024-03-08T14:55:27;23.70;76.00
16744;DHT22;71724;-33.900;151.182;2024-03-08T14:57:54;23.70;76.10
16744;DHT22;71724;-33.900;151.182;2024-03-08T15:00:22;23.70;76.10
16744;DHT22;71724;-33.900;151.182;2024-03-08T15:03:00;23.70;76.20
16744;DHT22;71724;-33.900;151.182;2024-03-08T15:05:36;23.70;76.30
16744;DHT22;71724;-33.900;151.182;2024-03-08T15:08:13;23.60;76.40
16744;DHT22;71724;-33.900;151.182;2024-03-08T15:10:47;23.60;76.50